createdAt,value
2022-09-16T00:04:47.035Z,2.40
2022-09-16T00:09:50.044Z,2.40
2022-09-16T00:14:54.175Z,2.70
2022-09-16T00:19:58.414Z,2.30
2022-09-16T00:25:01.324Z,2.80
2022-09-16T00:30:05.029Z,2.60
2022-09-16T00:35:08.167Z,2.60
2022-09-16T00:40:11.401Z,2.30
2022-09-16T00:45:23.538Z,2.50
2022-09-16T00:50:38.104Z,2.70
2022-09-16T00:55:42.903Z,2.50
2022-09-16T01:00:46.159Z,2.90
2022-09-16T01:05:49.899Z,2.50
2022-09-16T01:10:52.954Z,2.30
2022-09-16T01:16:18.645Z,2.30
2022-09-16T01:21:45.664Z,2.40
2022-09-16T01:27:13.034Z,2.20
2022-09-16T01:32:29.663Z,2.20
2022-09-16T01:37:41.582Z,1.90
2022-09-16T01:42:56.348Z,2.20
2022-09-16T01:48:08.375Z,2.00
2022-09-16T01:53:21.824Z,2.20
2022-09-16T01:58:36.618Z,2.40
2022-09-16T02:03:43.093Z,1.90
2022-09-16T02:08:59.310Z,2.50
2022-09-16T02:14:10.102Z,1.90
2022-09-16T02:19:19.659Z,2.20
2022-09-16T02:24:24.260Z,2.10
2022-09-16T02:29:40.110Z,2.10
2022-09-16T02:34:46.873Z,1.40
2022-09-16T02:39:55.250Z,2.00
2022-09-16T02:45:00.385Z,1.80
2022-09-16T02:50:14.333Z,2.00
2022-09-16T02:55:32.227Z,1.90
2022-09-16T03:00:40.951Z,1.80
2022-09-16T03:06:08.745Z,1.80
2022-09-16T03:11:30.573Z,2.00
2022-09-16T03:16:47.315Z,2.00
2022-09-16T03:22:23.808Z,1.80
2022-09-16T03:27:34.493Z,1.80
2022-09-16T03:37:45.415Z,1.50
2022-09-16T03:42:48.328Z,1.70
2022-09-16T03:47:53.452Z,2.60
2022-09-16T03:52:56.286Z,3.20
2022-09-16T03:57:59.186Z,2.50
2022-09-16T04:03:02.135Z,2.20
2022-09-16T04:08:05.097Z,2.10
2022-09-16T04:13:09.743Z,2.50
2022-09-16T04:18:12.549Z,2.10
2022-09-16T04:23:15.344Z,2.00
2022-09-16T04:28:18.146Z,2.20
2022-09-16T04:33:21.255Z,2.00
2022-09-16T04:38:24.161Z,2.20
2022-09-16T04:43:26.964Z,2.40
2022-09-16T04:48:30.643Z,2.20
2022-09-16T04:53:33.896Z,2.70
2022-09-16T04:58:36.969Z,3.20
2022-09-16T05:03:48.075Z,2.70
2022-09-16T05:08:52.937Z,2.80
2022-09-16T05:13:59.513Z,2.60
2022-09-16T05:19:06.410Z,2.30
2022-09-16T05:24:13.492Z,2.30
2022-09-16T05:29:17.447Z,2.00
2022-09-16T05:34:23.258Z,1.80
2022-09-16T05:39:26.600Z,1.60
2022-09-16T05:44:31.918Z,1.90
2022-09-16T05:49:34.925Z,1.70
2022-09-16T05:54:38.235Z,1.80
2022-09-16T05:59:41.254Z,1.40
2022-09-16T06:04:44.143Z,1.60
2022-09-16T06:09:47.047Z,1.40
2022-09-16T06:14:49.953Z,2.00
2022-09-16T06:19:52.855Z,2.60
2022-09-16T06:24:55.656Z,2.50
2022-09-16T06:29:58.665Z,2.10
2022-09-16T06:35:01.569Z,3.20
2022-09-16T06:40:05.297Z,2.40
2022-09-16T06:45:11.778Z,2.80
2022-09-16T06:50:19.301Z,2.20
2022-09-16T06:55:22.197Z,2.00
2022-09-16T07:00:25.111Z,2.20
2022-09-16T07:05:28.323Z,3.30
2022-09-16T07:10:31.222Z,3.90
2022-09-16T07:15:36.863Z,2.70
2022-09-16T07:20:45.214Z,2.90
2022-09-16T07:25:48.118Z,3.10
2022-09-16T07:30:51.204Z,3.30
2022-09-16T07:35:58.642Z,2.70
2022-09-16T07:41:09.829Z,3.50
2022-09-16T07:46:16.833Z,2.80
2022-09-16T07:51:22.084Z,2.90
2022-09-16T07:56:26.861Z,3.00
2022-09-16T08:01:31.504Z,2.80
2022-09-16T08:06:38.585Z,2.80
2022-09-16T08:11:42.309Z,2.50
2022-09-16T08:16:48.470Z,1.80
2022-09-16T08:21:54.436Z,2.10
2022-09-16T08:32:05.233Z,2.70
2022-09-16T08:37:10.555Z,3.70
2022-09-16T08:42:49.299Z,2.70
2022-09-16T08:48:12.541Z,2.70
2022-09-16T08:53:29.621Z,2.60
2022-09-16T08:58:40.627Z,2.30
2022-09-16T09:03:48.055Z,1.80
2022-09-16T09:09:22.260Z,2.20
2022-09-16T09:14:47.386Z,2.60
2022-09-16T09:20:34.838Z,2.00
2022-09-16T09:25:49.424Z,2.30
2022-09-16T09:31:17.164Z,2.50
2022-09-16T09:36:23.504Z,2.20
2022-09-16T09:41:38.775Z,1.90
2022-09-16T09:46:47.691Z,1.90
2022-09-16T09:52:20.019Z,1.90
2022-09-16T09:57:34.116Z,2.10
2022-09-16T10:02:40.541Z,2.50
2022-09-16T10:07:43.680Z,2.60
2022-09-16T10:12:46.992Z,2.90
2022-09-16T10:17:52.138Z,3.20
2022-09-16T10:23:00.376Z,2.40
2022-09-16T10:28:06.863Z,3.20
2022-09-16T10:33:17.825Z,2.30
2022-09-16T10:38:23.732Z,1.90
2022-09-16T10:43:32.267Z,1.90
2022-09-16T10:48:36.821Z,1.50
2022-09-16T10:53:45.885Z,1.90
2022-09-16T10:58:48.968Z,2.30
2022-09-16T11:04:29.779Z,2.00
2022-09-16T11:09:44.951Z,2.40
2022-09-16T11:14:53.996Z,2.50
2022-09-16T11:20:15.873Z,1.90
2022-09-16T11:25:45.681Z,2.40
2022-09-16T11:31:06.329Z,1.90
2022-09-16T11:36:15.249Z,2.50
2022-09-16T11:41:37.105Z,2.40
2022-09-16T11:47:27.615Z,2.50
2022-09-16T11:52:53.750Z,2.00
2022-09-16T11:58:20.843Z,2.10
2022-09-16T12:03:28.941Z,2.80
2022-09-16T12:08:56.543Z,2.80
2022-09-16T12:14:08.811Z,2.30
2022-09-16T12:19:22.115Z,2.30
2022-09-16T12:24:48.980Z,2.90
2022-09-16T12:29:59.984Z,2.50
2022-09-16T12:35:11.074Z,1.80
2022-09-16T12:40:17.192Z,2.00
2022-09-16T12:45:39.307Z,2.10
2022-09-16T12:51:13.136Z,3.00
2022-09-16T12:56:42.557Z,3.40
2022-09-16T13:01:51.324Z,3.10
2022-09-16T13:06:58.516Z,2.50
2022-09-16T13:12:35.384Z,2.40
2022-09-16T13:17:40.985Z,3.40
2022-09-16T13:23:07.129Z,2.90
2022-09-16T13:28:27.128Z,2.90
2022-09-16T13:33:30.133Z,1.90
2022-09-16T13:38:43.746Z,1.40
2022-09-16T13:43:52.629Z,1.80
2022-09-16T13:49:04.539Z,1.70
2022-09-16T13:54:19.030Z,1.60
2022-09-16T13:59:31.451Z,1.90
2022-09-16T14:04:44.484Z,2.70
2022-09-16T14:09:54.668Z,2.00
2022-09-16T14:15:00.946Z,2.40
2022-09-16T14:20:06.095Z,3.10
2022-09-16T14:25:30.126Z,3.00
2022-09-16T14:30:33.472Z,2.40
2022-09-16T14:35:36.833Z,2.10
2022-09-16T14:40:40.805Z,2.10
2022-09-16T14:45:51.091Z,1.90
2022-09-16T14:50:54.245Z,3.70
2022-09-16T14:55:57.799Z,3.00
2022-09-16T15:01:12.084Z,3.10
2022-09-16T15:06:20.669Z,3.90
2022-09-16T15:11:52.472Z,3.80
2022-09-16T15:17:03.820Z,3.90
2022-09-16T15:22:11.286Z,4.30
2022-09-16T15:27:22.574Z,3.60
2022-09-16T15:32:29.848Z,3.20
2022-09-16T15:37:37.695Z,2.90
2022-09-16T15:42:42.031Z,2.80
2022-09-16T15:48:07.514Z,4.00
2022-09-16T15:53:16.255Z,3.50
2022-09-16T15:58:42.048Z,4.50
2022-09-16T16:03:44.966Z,4.90
2022-09-16T16:08:50.878Z,2.50
2022-09-16T16:13:55.002Z,2.50
2022-09-16T16:18:59.597Z,2.20
2022-09-16T16:24:03.870Z,2.00
2022-09-16T16:29:09.191Z,1.90
2022-09-16T16:34:12.215Z,2.10
2022-09-16T16:39:15.313Z,1.90
2022-09-16T16:44:18.214Z,2.40
2022-09-16T16:49:21.952Z,3.10
2022-09-16T16:54:26.411Z,2.50
2022-09-16T16:59:29.599Z,3.70
2022-09-16T17:04:32.698Z,5.30
2022-09-16T17:09:35.744Z,4.80
2022-09-16T17:14:39.019Z,6.10
2022-09-16T17:19:41.923Z,7.20
2022-09-16T17:24:44.828Z,9.70
2022-09-16T17:29:47.730Z,6.60
2022-09-16T17:34:50.634Z,3.90
2022-09-16T17:39:53.691Z,3.40
2022-09-16T17:44:57.365Z,2.70
2022-09-16T17:50:03.669Z,2.90
2022-09-16T17:55:06.926Z,4.60
2022-09-16T18:00:10.689Z,5.80
2022-09-16T18:05:14.620Z,6.90
2022-09-16T18:10:17.928Z,7.60
2022-09-16T18:15:21.853Z,4.40
2022-09-16T18:20:25.472Z,3.20
2022-09-16T18:25:28.688Z,2.90
2022-09-16T18:30:31.633Z,5.70
2022-09-16T18:35:37.315Z,6.20
2022-09-16T18:40:40.623Z,3.40
2022-09-16T18:45:43.728Z,3.70
2022-09-16T18:50:47.008Z,6.20
2022-09-16T18:55:53.683Z,4.20
2022-09-16T19:00:56.744Z,3.00
2022-09-16T19:05:59.799Z,3.70
2022-09-16T19:11:04.644Z,3.40
2022-09-16T19:16:08.066Z,2.50
2022-09-16T19:21:18.990Z,2.60
2022-09-16T19:26:22.631Z,2.30
2022-09-16T19:31:26.026Z,2.30
2022-09-16T19:36:32.288Z,2.20
2022-09-16T19:41:37.769Z,2.50
2022-09-16T19:46:43.061Z,2.80
2022-09-16T19:51:48.547Z,2.10
2022-09-16T19:56:54.662Z,2.10
2022-09-16T20:01:58.695Z,2.50
2022-09-16T20:07:02.523Z,2.60
2022-09-16T20:12:05.866Z,1.80
2022-09-16T20:17:10.652Z,1.90
2022-09-16T20:22:13.681Z,1.90
2022-09-16T20:27:17.316Z,1.60
2022-09-16T20:32:21.017Z,1.80
2022-09-16T20:37:24.000Z,1.70
2022-09-16T20:42:30.408Z,2.40
2022-09-16T20:47:33.324Z,1.90
2022-09-16T20:52:36.320Z,1.80
2022-09-16T20:57:39.230Z,2.00
2022-09-16T21:02:45.512Z,1.90
2022-09-16T21:07:48.714Z,2.10
2022-09-16T21:12:51.723Z,2.00
2022-09-16T21:17:54.834Z,2.10
2022-09-16T21:22:58.359Z,2.00
2022-09-16T21:28:01.695Z,1.80
2022-09-16T21:33:04.671Z,2.10
2022-09-16T21:38:07.576Z,2.20
2022-09-16T21:43:10.477Z,2.20
2022-09-16T21:48:16.469Z,2.00
2022-09-16T21:53:19.459Z,1.90
2022-09-16T21:58:22.362Z,1.90
2022-09-16T22:03:25.267Z,2.20
2022-09-16T22:08:28.070Z,1.70
2022-09-16T22:13:32.508Z,1.70
2022-09-16T22:18:39.469Z,1.90
2022-09-16T22:23:42.411Z,1.90
2022-09-16T22:28:45.319Z,2.00
2022-09-16T22:33:50.472Z,1.90
2022-09-16T22:38:58.584Z,1.80
2022-09-16T22:44:02.432Z,1.70
2022-09-16T22:49:05.533Z,2.20
2022-09-16T22:54:09.594Z,2.20
2022-09-16T22:59:20.661Z,2.10
2022-09-16T23:04:27.393Z,2.10
2022-09-16T23:09:32.817Z,1.90
2022-09-16T23:14:35.720Z,1.60
2022-09-16T23:19:38.624Z,1.80
2022-09-16T23:24:42.245Z,2.00
2022-09-16T23:29:45.151Z,1.90
2022-09-16T23:34:48.056Z,2.00
2022-09-16T23:39:50.893Z,1.60
2022-09-16T23:44:54.066Z,1.50
2022-09-16T23:49:59.431Z,1.70
2022-09-16T23:55:02.338Z,1.70
